Bandon, Oregon
Current Conditions -  °F | °C
As of 4:35 AM on Monday 20 Oct 2014 (Local Time) from KOTH Reporting Station
Overcast Overcast  
Wind Chill: 57°   Ceiling: 2400
Heat Index: 57°   Visibility: 10mi
Dew Point: 57°   Wind: 6mph
Humidity: 100%   Direction: 160°SSE
Pressure: 29.76"   Gusts: NA
Location:  43.12°N, 124.41°W
Report Text: KOTH 201135Z 16005KT 10SM BKN024 BKN028 OVC110 14/14 A2976 RMK AO1
Loading
Personal Weather Stations






























Interactive Weather Map
Tropical Storm Tracking
New forecast layout! Learn more

10-Day Weather Forecast

Advertisements
Track Severe Weather on mobile